Time;durP1;ratioP1;P1;durP2;ratioP2;P2;SDS_P1;SDS_P2;PMS_P1;PMS_P2;Temp;Humidity;BMP_temperature;BMP_pressure;BME280_temperature;BME280_humidity;BME280_pressure;Samples;Min_cycle;Max_cycle;Signal;HPM_P1;HPM_P2
2022/11/28 00:01:34;;;;;;;15.10;9.38;;;6.40;64.30;;;;;;4980009;28;20026;-86
2022/11/28 00:04:01;;;;;;;15.60;8.40;;;6.40;64.20;;;;;;4999627;28;20014;-87
2022/11/28 00:06:26;;;;;;;19.05;10.48;;;6.40;64.20;;;;;;4989981;28;20023;-87
2022/11/28 00:08:53;;;;;;;15.05;9.88;;;6.30;65.30;;;;;;4984416;28;20041;-87
2022/11/28 00:11:18;;;;;;;17.27;9.70;;;6.30;65.70;;;;;;4982712;28;20097;-86
2022/11/28 00:13:44;;;;;;;17.50;10.18;;;6.20;64.90;;;;;;4997062;28;20467;-87
2022/11/28 00:16:22;;;;;;;17.65;10.00;;;6.20;65.60;;;;;;4977265;28;20126;-87
2022/11/28 00:18:50;;;;;;;18.05;10.70;;;6.10;66.00;;;;;;4980716;28;20380;-86
2022/11/28 00:21:17;;;;;;;17.45;9.98;;;6.10;66.30;;;;;;4981830;28;20033;-86
2022/11/28 00:23:44;;;;;;;16.88;10.82;;;6.10;66.40;;;;;;4981190;28;20050;-87
2022/11/28 00:26:13;;;;;;;12.52;7.82;;;6.10;67.00;;;;;;4980793;28;20050;-86
2022/11/28 00:28:39;;;;;;;11.02;6.15;;;6.10;64.60;;;;;;4980380;28;20046;-85
2022/11/28 00:31:05;;;;;;;9.45;6.10;;;6.10;63.20;;;;;;4997924;28;20027;-86
2022/11/28 00:33:34;;;;;;;7.25;3.63;;;6.20;60.90;;;;;;4980529;28;20026;-86
2022/11/28 00:36:01;;;;;;;3.92;2.58;;;6.30;56.60;;;;;;4980005;28;20022;-85
2022/11/28 00:38:27;;;;;;;4.25;2.47;;;6.50;52.60;;;;;;4979686;28;20041;-85
2022/11/28 00:41:04;;;;;;;7.57;2.92;;;6.60;52.60;;;;;;4979810;28;20018;-85
2022/11/28 00:43:29;;;;;;;4.22;2.58;;;6.80;52.20;;;;;;4997543;28;20022;-85
2022/11/28 00:45:55;;;;;;;3.30;1.95;;;6.90;52.40;;;;;;4985160;28;20041;-85
2022/11/28 00:48:21;;;;;;;4.22;2.28;;;6.90;50.80;;;;;;4990883;28;20031;-85
2022/11/28 00:50:46;;;;;;;3.10;1.95;;;7.00;50.60;;;;;;5003997;28;20086;-84
2022/11/28 00:53:12;;;;;;;4.65;2.10;;;7.10;49.90;;;;;;5001876;28;20030;-84
2022/11/28 00:55:38;;;;;;;2.58;1.77;;;7.10;49.70;;;;;;4995762;28;20058;-84
2022/11/28 00:58:05;;;;;;;4.03;1.95;;;7.20;47.90;;;;;;4981670;28;20030;-83
2022/11/28 01:00:30;;;;;;;3.85;2.10;;;7.30;48.30;;;;;;4980649;28;20041;-84
2022/11/28 01:02:56;;;;;;;5.70;1.92;;;7.30;48.40;;;;;;4979698;28;20022;-84
2022/11/28 01:05:22;;;;;;;2.28;1.60;;;7.30;47.90;;;;;;4998001;28;20030;-85
2022/11/28 01:07:48;;;;;;;2.88;1.63;;;7.30;47.40;;;;;;4979967;28;20391;-84
2022/11/28 01:10:13;;;;;;;2.78;1.73;;;7.40;46.90;;;;;;4980012;28;20390;-84
2022/11/28 01:12:39;;;;;;;2.63;1.58;;;7.40;47.00;;;;;;4979199;28;20029;-86
2022/11/28 01:15:07;;;;;;;4.45;1.90;;;7.40;47.10;;;;;;4983229;28;20026;-86
2022/11/28 01:17:33;;;;;;;4.43;2.20;;;7.40;47.90;;;;;;4987440;28;20022;-86
2022/11/28 01:19:59;;;;;;;3.65;2.22;;;7.30;47.80;;;;;;4982022;28;20018;-85
2022/11/28 01:22:25;;;;;;;3.20;2.00;;;7.30;48.30;;;;;;4978974;28;20109;-84
2022/11/28 01:24:50;;;;;;;3.95;2.47;;;7.40;48.40;;;;;;4978620;28;20519;-85
2022/11/28 01:27:16;;;;;;;2.30;1.60;;;7.30;48.20;;;;;;4979159;28;20019;-85
2022/11/28 01:29:41;;;;;;;3.80;2.00;;;7.30;48.00;;;;;;4977740;28;20177;-85
2022/11/28 01:32:07;;;;;;;3.63;2.25;;;7.30;48.30;;;;;;4979072;28;20466;-86
2022/11/28 01:34:32;;;;;;;4.15;2.20;;;7.30;48.70;;;;;;4996384;28;20391;-86
2022/11/28 01:36:59;;;;;;;5.47;2.65;;;7.20;49.20;;;;;;4978821;28;20030;-86
2022/11/28 01:39:24;;;;;;;3.25;2.20;;;7.20;49.90;;;;;;4979428;28;20475;-86
2022/11/28 01:41:50;;;;;;;3.35;2.28;;;7.20;50.30;;;;;;4996460;28;20049;-86
2022/11/28 01:44:16;;;;;;;4.15;2.38;;;7.10;50.80;;;;;;4979133;28;20069;-84
2022/11/28 01:46:42;;;;;;;4.45;2.85;;;7.10;50.90;;;;;;4978835;28;20027;-85
2022/11/28 01:49:07;;;;;;;6.85;2.80;;;7.00;51.50;;;;;;4978727;28;20517;-85
2022/11/28 01:51:34;;;;;;;4.65;3.00;;;7.00;51.90;;;;;;4978859;28;20471;-85
2022/11/28 01:54:01;;;;;;;5.18;3.17;;;6.90;52.40;;;;;;4978900;28;20033;-85
2022/11/28 01:56:34;;;;;;;6.40;3.42;;;6.90;52.70;;;;;;4978456;28;20018;-84
2022/11/28 01:59:06;;;;;;;5.65;3.50;;;6.90;53.00;;;;;;4978413;28;20061;-85
2022/11/28 02:01:31;;;;;;;6.07;3.70;;;6.90;53.20;;;;;;4978397;28;20030;-84
2022/11/28 02:03:58;;;;;;;5.78;3.83;;;6.80;53.70;;;;;;4978387;28;20034;-85
2022/11/28 02:06:24;;;;;;;7.45;4.13;;;6.70;54.50;;;;;;4995831;28;20038;-85
2022/11/28 02:08:54;;;;;;;7.05;4.10;;;6.60;54.90;;;;;;4978668;28;20039;-85
2022/11/28 02:11:55;;;;;;;5.50;3.72;;;6.50;55.30;;;;;;4978312;28;20157;-85
2022/11/28 02:14:29;;;;;;;4.47;3.33;;;6.50;56.40;;;;;;4995445;28;20034;-85
2022/11/28 02:17:04;;;;;;;6.72;3.15;;;6.50;55.50;;;;;;4978397;28;20026;-84
2022/11/28 02:19:41;;;;;;;8.18;3.10;;;6.50;55.20;;;;;;4978573;28;20018;-86
2022/11/28 02:22:38;;;;;;;3.80;2.80;;;6.50;54.60;;;;;;4979157;28;20038;-85
2022/11/28 02:25:19;;;;;;;3.75;2.22;;;6.50;54.30;;;;;;4993476;28;20114;-85
2022/11/28 02:28:22;;;;;;;3.70;2.17;;;6.60;53.70;;;;;;5003250;28;20014;-84
2022/11/28 02:30:57;;;;;;;4.25;1.85;;;6.70;53.40;;;;;;5003127;28;20026;-86
2022/11/28 02:33:41;;;;;;;4.88;1.85;;;6.60;54.80;;;;;;5019968;28;20026;-85
2022/11/28 02:36:33;;;;;;;3.83;1.85;;;6.50;56.20;;;;;;4997065;28;20125;-87
2022/11/28 02:39:12;;;;;;;4.13;1.65;;;6.50;56.60;;;;;;5003825;28;20034;-86
2022/11/28 02:41:46;;;;;;;4.45;1.80;;;6.40;56.30;;;;;;4995161;28;20018;-85
2022/11/28 02:44:14;;;;;;;5.88;2.83;;;6.50;55.60;;;;;;4978167;28;20053;-86
2022/11/28 02:46:50;;;;;;;3.80;2.90;;;6.40;54.90;;;;;;4977568;28;20510;-85
2022/11/28 02:49:22;;;;;;;7.55;4.18;;;6.40;55.90;;;;;;4978170;28;20449;-86
2022/11/28 02:51:56;;;;;;;6.90;4.22;;;6.40;56.90;;;;;;4977469;28;20738;-86
2022/11/28 02:54:23;;;;;;;5.95;3.63;;;6.30;57.80;;;;;;4977858;28;20027;-86
2022/11/28 02:56:51;;;;;;;5.97;4.00;;;6.20;58.10;;;;;;4977934;28;20566;-86
2022/11/28 02:59:40;;;;;;;7.90;4.38;;;6.10;58.40;;;;;;4977901;28;20029;-85
2022/11/28 03:02:14;;;;;;;5.88;4.22;;;6.10;59.00;;;;;;4970930;28;20398;-86
2022/11/28 03:05:03;;;;;;;8.18;4.90;;;6.10;59.90;;;;;;4978648;28;20045;-86
2022/11/28 03:07:44;;;;;;;5.53;4.30;;;6.00;60.30;;;;;;4977883;28;20570;-87
2022/11/28 03:10:23;;;;;;;7.68;4.40;;;5.90;60.10;;;;;;4977787;28;20042;-86
2022/11/28 03:13:09;;;;;;;6.35;4.20;;;5.90;60.50;;;;;;4978075;28;20054;-87
2022/11/28 03:16:13;;;;;;;6.82;4.65;;;5.90;60.80;;;;;;4979351;28;20022;-89
2022/11/28 03:18:45;;;;;;;7.57;4.47;;;5.80;61.60;;;;;;4969891;28;20035;-87
2022/11/28 03:21:16;;;;;;;7.30;4.90;;;5.70;62.30;;;;;;4983951;28;20022;-87
2022/11/28 03:23:47;;;;;;;7.75;4.72;;;5.70;62.70;;;;;;4982791;28;20502;-85
2022/11/28 03:26:45;;;;;;;6.53;4.15;;;5.60;62.70;;;;;;4979894;28;20100;-87
2022/11/28 03:29:20;;;;;;;3.15;2.58;;;5.60;61.40;;;;;;4981612;28;20034;-87
2022/11/28 03:31:57;;;;;;;5.67;2.90;;;5.70;59.20;;;;;;4977927;28;20099;-87
2022/11/28 03:34:33;;;;;;;6.47;3.83;;;5.90;58.20;;;;;;4977473;28;20320;-87
2022/11/28 03:37:03;;;;;;;5.47;3.28;;;6.00;58.80;;;;;;4977839;28;20113;-87
2022/11/28 03:39:33;;;;;;;6.60;3.20;;;6.00;59.10;;;;;;4977881;28;20034;-86
2022/11/28 03:42:18;;;;;;;4.65;2.70;;;6.00;58.40;;;;;;4977598;28;20030;-86
2022/11/28 03:44:57;;;;;;;6.43;3.60;;;6.00;57.70;;;;;;4994623;28;20034;-84
2022/11/28 03:47:29;;;;;;;4.72;3.22;;;6.00;58.60;;;;;;4994529;28;20030;-85
2022/11/28 03:49:58;;;;;;;4.88;2.80;;;6.00;59.10;;;;;;4977439;28;20069;-85
2022/11/28 03:52:33;;;;;;;4.65;2.90;;;6.10;57.50;;;;;;4977729;28;20483;-84
2022/11/28 03:55:04;;;;;;;4.18;2.88;;;6.10;57.50;;;;;;4997830;28;20034;-84
2022/11/28 03:57:36;;;;;;;3.45;2.20;;;6.20;57.80;;;;;;4980513;28;20023;-85
2022/11/28 04:00:06;;;;;;;4.63;2.28;;;6.20;58.70;;;;;;4980725;28;20041;-87
2022/11/28 04:03:08;;;;;;;5.28;2.78;;;6.10;60.80;;;;;;4980993;28;20105;-86
2022/11/28 04:05:58;;;;;;;6.30;3.05;;;6.20;58.70;;;;;;4981153;28;20026;-85
2022/11/28 04:08:33;;;;;;;6.85;3.28;;;6.20;57.00;;;;;;4980693;28;20438;-85
2022/11/28 04:11:12;;;;;;;6.20;3.33;;;6.10;58.10;;;;;;4980813;28;20037;-84
2022/11/28 04:13:56;;;;;;;5.15;3.30;;;6.20;58.30;;;;;;4980567;28;20033;-85
2022/11/28 04:16:36;;;;;;;7.05;3.33;;;6.20;57.90;;;;;;4980718;28;20475;-86
2022/11/28 04:19:28;;;;;;;8.45;3.45;;;6.20;57.70;;;;;;4980619;28;20026;-86
2022/11/28 04:21:59;;;;;;;5.90;3.38;;;6.20;57.70;;;;;;4980180;28;20095;-85
2022/11/28 04:24:29;;;;;;;3.83;3.22;;;6.20;57.80;;;;;;4980365;28;20052;-86
2022/11/28 04:27:00;;;;;;;5.85;3.40;;;6.20;57.80;;;;;;4980322;28;20129;-85
2022/11/28 04:29:30;;;;;;;6.20;3.38;;;6.20;58.20;;;;;;4980348;28;20034;-86
2022/11/28 04:31:58;;;;;;;4.22;2.97;;;6.20;58.40;;;;;;4980560;28;20023;-88
2022/11/28 04:34:26;;;;;;;7.57;4.03;;;6.20;58.40;;;;;;4980736;28;20038;-88
2022/11/28 04:36:54;;;;;;;6.47;3.78;;;6.10;59.10;;;;;;4984563;28;20023;-88
2022/11/28 04:39:24;;;;;;;5.30;3.88;;;6.20;59.30;;;;;;4987537;28;20532;-86
2022/11/28 04:41:56;;;;;;;7.13;4.60;;;6.10;59.60;;;;;;4980526;28;20069;-86
2022/11/28 04:44:31;;;;;;;8.95;4.78;;;6.10;59.40;;;;;;4980392;28;20054;-87
2022/11/28 04:46:57;;;;;;;7.05;4.38;;;6.10;59.40;;;;;;4980117;28;20054;-86
2022/11/28 04:49:25;;;;;;;8.30;4.03;;;6.10;59.30;;;;;;4997538;28;20533;-87
2022/11/28 04:52:05;;;;;;;6.57;4.10;;;6.10;59.60;;;;;;4979988;28;20026;-86
2022/11/28 04:54:50;;;;;;;7.18;4.13;;;6.00;59.80;;;;;;4979962;28;20065;-82
2022/11/28 04:57:38;;;;;;;7.07;4.13;;;6.00;60.10;;;;;;4978995;28;20043;-83
2022/11/28 05:00:11;;;;;;;8.18;4.28;;;6.00;59.60;;;;;;4978934;28;20470;-81
2022/11/28 05:02:39;;;;;;;5.82;3.97;;;6.10;59.90;;;;;;4996462;28;20030;-80
2022/11/28 05:05:24;;;;;;;6.25;4.05;;;6.00;60.10;;;;;;4996028;28;20030;-83
2022/11/28 05:07:51;;;;;;;7.88;4.78;;;6.00;60.50;;;;;;4996526;28;20029;-87
2022/11/28 05:10:18;;;;;;;7.53;4.38;;;5.90;60.80;;;;;;4996468;28;20037;-84
2022/11/28 05:12:43;;;;;;;4.88;3.72;;;5.90;61.10;;;;;;4996283;28;20400;-81
2022/11/28 05:15:10;;;;;;;5.72;3.95;;;5.90;61.00;;;;;;4978473;28;20034;-80
2022/11/28 05:17:35;;;;;;;9.10;3.63;;;6.10;62.20;;;;;;4978709;28;20034;-78
2022/11/28 05:20:01;;;;;;;10.90;3.78;;;6.20;68.50;;;;;;4996118;28;20378;-79
2022/11/28 05:22:27;;;;;;;8.45;4.20;;;6.70;73.10;;;;;;4995972;28;20033;-80
2022/11/28 05:24:52;;;;;;;6.00;3.97;;;7.10;66.00;;;;;;4995386;28;20081;-79
2022/11/28 05:27:18;;;;;;;7.90;3.90;;;7.50;66.90;;;;;;4995789;28;20023;-76
2022/11/28 05:29:45;;;;;;;10.10;4.50;;;7.60;59.20;;;;;;4995710;28;20498;-76
2022/11/28 05:32:12;;;;;;;7.60;3.85;;;7.70;61.30;;;;;;4989232;28;20474;-77
2022/11/28 05:34:37;;;;;;;7.60;4.00;;;8.00;60.80;;;;;;4974087;28;20052;-85
2022/11/28 05:37:03;;;;;;;6.28;4.28;;;8.00;56.30;;;;;;4979237;28;20542;-85
2022/11/28 05:39:29;;;;;;;8.63;4.50;;;7.80;55.70;;;;;;4978604;28;20128;-85
2022/11/28 05:41:55;;;;;;;8.38;4.97;;;7.60;56.10;;;;;;4978356;28;20060;-85
2022/11/28 05:44:21;;;;;;;6.40;4.05;;;7.20;56.90;;;;;;4979233;28;20084;-85
2022/11/28 05:46:46;;;;;;;6.07;4.20;;;7.00;57.80;;;;;;4978716;28;20026;-85
2022/11/28 05:49:12;;;;;;;8.15;4.57;;;6.70;59.00;;;;;;4979090;28;20041;-84
2022/11/28 05:51:37;;;;;;;8.20;3.63;;;6.60;59.70;;;;;;4979835;28;20083;-85
2022/11/28 05:54:04;;;;;;;9.15;4.65;;;6.50;60.20;;;;;;5016346;28;20109;-85
2022/11/28 05:56:29;;;;;;;7.75;4.88;;;6.30;60.60;;;;;;5002450;28;20031;-85
2022/11/28 05:58:55;;;;;;;7.45;5.05;;;6.30;62.10;;;;;;5003541;28;20037;-85
2022/11/28 06:01:24;;;;;;;10.27;5.10;;;6.10;62.00;;;;;;5003116;28;20083;-86
2022/11/28 06:03:51;;;;;;;10.85;5.32;;;6.10;62.40;;;;;;5002800;28;20021;-85
2022/11/28 06:06:19;;;;;;;9.30;5.32;;;6.00;62.80;;;;;;4988566;28;20053;-86
2022/11/28 06:08:47;;;;;;;9.82;5.47;;;5.90;63.50;;;;;;4983865;28;20042;-85
2022/11/28 06:11:13;;;;;;;9.00;5.70;;;5.90;63.70;;;;;;4988592;28;20029;-87
2022/11/28 06:13:42;;;;;;;9.55;5.38;;;5.70;64.00;;;;;;4982296;28;20069;-85
2022/11/28 06:16:10;;;;;;;9.38;5.45;;;5.70;64.40;;;;;;4978335;28;20027;-87
2022/11/28 06:18:36;;;;;;;11.20;6.35;;;5.70;64.50;;;;;;4980956;28;20117;-85
2022/11/28 06:21:04;;;;;;;8.88;5.55;;;5.60;64.80;;;;;;4984169;28;20060;-85
2022/11/28 06:23:30;;;;;;;9.68;5.97;;;5.70;64.80;;;;;;4985210;28;20498;-85
2022/11/28 06:25:56;;;;;;;12.95;5.72;;;5.70;65.00;;;;;;4978191;28;20026;-85
2022/11/28 06:28:22;;;;;;;11.32;5.85;;;5.70;65.00;;;;;;4995480;28;20109;-85
2022/11/28 06:30:47;;;;;;;8.13;5.63;;;5.70;65.50;;;;;;4996690;28;20062;-84
2022/11/28 06:33:13;;;;;;;9.57;5.47;;;5.60;65.50;;;;;;4978211;28;20022;-85
2022/11/28 06:35:38;;;;;;;8.93;5.55;;;5.60;65.70;;;;;;4978328;28;20512;-85
2022/11/28 06:38:04;;;;;;;11.95;6.65;;;5.50;66.00;;;;;;4977918;28;20085;-85
2022/11/28 06:40:29;;;;;;;8.95;6.10;;;5.50;66.20;;;;;;4978365;28;20041;-85
2022/11/28 06:42:55;;;;;;;12.85;6.68;;;5.40;66.50;;;;;;4978623;28;20441;-85
2022/11/28 06:45:20;;;;;;;8.63;6.10;;;5.40;66.70;;;;;;4978596;28;20041;-85
2022/11/28 06:47:47;;;;;;;13.32;6.80;;;5.40;66.60;;;;;;4979178;28;20030;-85
2022/11/28 06:50:12;;;;;;;11.75;6.18;;;5.30;66.40;;;;;;4978237;28;20108;-84
2022/11/28 06:52:38;;;;;;;10.63;6.43;;;5.30;66.50;;;;;;4977426;28;20073;-82
2022/11/28 06:55:04;;;;;;;13.00;6.10;;;5.30;66.50;;;;;;4978532;28;20089;-84
2022/11/28 06:57:31;;;;;;;12.07;6.03;;;5.40;66.30;;;;;;4977636;28;20094;-84
2022/11/28 06:59:57;;;;;;;13.55;6.60;;;5.40;66.40;;;;;;4977437;28;20394;-83
2022/11/28 07:02:23;;;;;;;11.52;6.97;;;5.40;66.50;;;;;;4977586;28;20023;-84
2022/11/28 07:04:49;;;;;;;12.45;6.40;;;5.50;66.60;;;;;;4976886;28;20030;-84
2022/11/28 07:07:15;;;;;;;11.38;6.30;;;5.60;66.50;;;;;;4976952;28;20036;-83
2022/11/28 07:09:40;;;;;;;11.15;7.05;;;5.60;66.30;;;;;;4977303;28;20038;-84
2022/11/28 07:12:06;;;;;;;12.05;6.70;;;5.70;66.60;;;;;;4976952;28;20080;-84
2022/11/28 07:14:32;;;;;;;11.68;5.75;;;5.70;66.50;;;;;;4976832;28;20117;-84
2022/11/28 07:16:58;;;;;;;10.20;5.68;;;5.70;66.80;;;;;;4976688;28;20383;-83
2022/11/28 07:19:23;;;;;;;13.20;6.57;;;5.80;66.80;;;;;;4976915;28;20018;-82
2022/11/28 07:21:49;;;;;;;8.70;5.43;;;5.80;66.60;;;;;;4976673;28;20434;-82
2022/11/28 07:24:17;;;;;;;9.68;5.72;;;5.90;66.80;;;;;;4993900;28;20073;-83
2022/11/28 07:26:44;;;;;;;11.27;6.97;;;5.90;66.90;;;;;;4975824;28;20038;-84
2022/11/28 07:29:14;;;;;;;12.80;6.75;;;5.90;66.90;;;;;;4976893;28;20045;-83
2022/11/28 07:31:40;;;;;;;10.65;6.82;;;5.90;67.00;;;;;;4976732;28;20085;-84
2022/11/28 07:34:06;;;;;;;10.43;5.82;;;5.90;66.70;;;;;;4994377;28;20062;-84
2022/11/28 07:36:32;;;;;;;11.30;6.68;;;5.90;66.80;;;;;;4977036;28;20030;-83
2022/11/28 07:39:00;;;;;;;10.40;6.60;;;5.90;67.00;;;;;;4976785;28;20026;-82
2022/11/28 07:41:26;;;;;;;12.65;6.75;;;5.90;67.20;;;;;;4976409;28;20378;-82
2022/11/28 07:43:55;;;;;;;11.15;6.43;;;5.90;67.20;;;;;;4993945;28;20038;-83
2022/11/28 07:46:21;;;;;;;14.27;7.10;;;5.90;67.00;;;;;;4976332;28;20023;-84
2022/11/28 07:48:48;;;;;;;10.15;5.78;;;5.90;67.10;;;;;;4976335;28;20034;-83
2022/11/28 07:51:26;;;;;;;13.00;6.85;;;6.00;67.20;;;;;;4995097;28;20077;-81
2022/11/28 07:53:52;;;;;;;12.95;6.55;;;5.90;67.10;;;;;;4976210;28;20085;-85
2022/11/28 07:56:21;;;;;;;9.88;5.85;;;6.00;67.10;;;;;;4994280;28;20438;-84
2022/11/28 07:58:47;;;;;;;10.27;5.40;;;6.00;66.90;;;;;;4978350;28;20026;-83
2022/11/28 08:01:15;;;;;;;10.57;6.07;;;6.10;66.80;;;;;;4981741;28;20029;-82
2022/11/28 08:03:43;;;;;;;11.07;6.20;;;6.10;66.60;;;;;;4997911;28;20057;-83
2022/11/28 08:06:09;;;;;;;11.35;6.22;;;6.10;66.40;;;;;;5012295;28;20045;-82
2022/11/28 08:08:36;;;;;;;13.05;7.32;;;6.20;66.20;;;;;;5000855;28;20026;-81
2022/11/28 08:11:04;;;;;;;12.65;6.97;;;6.20;67.00;;;;;;5016082;28;20015;-82
2022/11/28 08:13:30;;;;;;;11.00;6.45;;;6.30;65.60;;;;;;4998436;28;20019;-83
2022/11/28 08:15:55;;;;;;;10.82;6.82;;;6.30;65.60;;;;;;4989077;28;20026;-82
2022/11/28 08:18:21;;;;;;;16.48;6.60;;;6.30;65.70;;;;;;4976185;28;20023;-82
2022/11/28 08:20:47;;;;;;;12.85;6.50;;;6.20;66.20;;;;;;4975861;28;20495;-82
2022/11/28 08:23:12;;;;;;;12.48;6.70;;;6.20;66.20;;;;;;4976516;28;20045;-83
2022/11/28 08:25:38;;;;;;;10.80;6.53;;;6.30;66.20;;;;;;4975672;28;20033;-83
2022/11/28 08:28:05;;;;;;;13.88;5.70;;;6.30;66.40;;;;;;4993228;28;20049;-83
2022/11/28 08:30:30;;;;;;;13.70;6.75;;;6.30;66.20;;;;;;4973962;28;20026;-83
2022/11/28 08:32:56;;;;;;;11.82;6.03;;;6.30;66.30;;;;;;4974253;28;20025;-82
2022/11/28 08:35:22;;;;;;;15.82;7.57;;;6.40;66.20;;;;;;4992226;28;20031;-83
2022/11/28 08:37:47;;;;;;;14.18;7.22;;;6.40;66.30;;;;;;4975467;28;20462;-83
2022/11/28 08:40:13;;;;;;;19.48;8.68;;;6.40;66.30;;;;;;4979060;28;20026;-83
2022/11/28 08:42:39;;;;;;;18.38;7.22;;;6.50;66.30;;;;;;4979282;28;20022;-82
2022/11/28 08:45:05;;;;;;;12.13;5.68;;;6.50;66.80;;;;;;4996375;28;20493;-81
2022/11/28 08:47:31;;;;;;;13.38;5.78;;;6.50;66.70;;;;;;4996126;28;20019;-82
2022/11/28 08:49:57;;;;;;;11.38;6.38;;;6.60;66.70;;;;;;4985195;28;20039;-82
2022/11/28 08:52:23;;;;;;;11.85;6.43;;;6.60;66.60;;;;;;4974908;28;20120;-83
2022/11/28 08:54:49;;;;;;;12.02;6.68;;;6.80;66.40;;;;;;4966868;28;20038;-81
2022/11/28 08:57:14;;;;;;;15.95;9.00;;;6.80;66.10;;;;;;4985809;28;20019;-82
2022/11/28 08:59:40;;;;;;;14.77;7.18;;;6.80;65.80;;;;;;4968022;28;20114;-82
2022/11/28 09:02:07;;;;;;;14.43;7.47;;;6.90;65.70;;;;;;4984366;28;20551;-82
2022/11/28 09:04:33;;;;;;;12.15;7.45;;;6.90;65.30;;;;;;4986509;28;20033;-82
2022/11/28 09:06:59;;;;;;;14.45;7.32;;;6.80;66.60;;;;;;4968786;28;20030;-82
2022/11/28 09:09:24;;;;;;;11.60;6.65;;;6.80;65.90;;;;;;4985770;28;20058;-83
2022/11/28 09:11:50;;;;;;;9.70;5.70;;;6.90;65.90;;;;;;4985133;28;20040;-84
2022/11/28 09:14:15;;;;;;;11.63;5.95;;;6.90;65.60;;;;;;4986145;28;20394;-82
2022/11/28 09:16:41;;;;;;;14.30;6.38;;;7.00;65.50;;;;;;4969473;28;20118;-83
2022/11/28 09:19:08;;;;;;;10.93;5.60;;;7.10;65.90;;;;;;4968103;28;20026;-83
2022/11/28 09:21:34;;;;;;;11.63;5.65;;;7.10;65.90;;;;;;4969327;28;20023;-83
2022/11/28 09:23:59;;;;;;;10.38;6.20;;;7.20;65.80;;;;;;4985292;28;20128;-83
2022/11/28 09:26:25;;;;;;;17.27;7.15;;;7.20;65.80;;;;;;4967957;28;20467;-83
2022/11/28 09:28:51;;;;;;;16.98;7.07;;;7.30;65.80;;;;;;4984011;28;20043;-83
2022/11/28 09:31:18;;;;;;;13.18;6.80;;;7.30;65.70;;;;;;4968747;28;20022;-83
2022/11/28 09:33:45;;;;;;;16.90;7.63;;;7.40;65.70;;;;;;4967746;28;20034;-83
2022/11/28 09:36:14;;;;;;;16.73;8.13;;;7.40;66.00;;;;;;4986487;28;20391;-83
2022/11/28 09:38:40;;;;;;;28.00;9.55;;;7.50;66.00;;;;;;4987836;28;20386;-82
2022/11/28 09:41:20;;;;;;;13.18;7.85;;;7.50;66.30;;;;;;4976721;28;20022;-82
2022/11/28 09:43:48;;;;;;;11.43;7.15;;;7.60;66.40;;;;;;4995863;28;20052;-83
2022/11/28 09:46:22;;;;;;;12.43;6.40;;;7.60;66.30;;;;;;4995706;28;20084;-81
2022/11/28 09:48:52;;;;;;;15.30;7.47;;;7.70;66.10;;;;;;4995245;28;20483;-82
2022/11/28 09:51:21;;;;;;;13.75;6.57;;;7.80;66.10;;;;;;4976758;28;20296;-83
2022/11/28 09:54:14;;;;;;;13.85;7.22;;;7.80;65.70;;;;;;4978149;28;20033;-84
2022/11/28 09:56:40;;;;;;;12.88;6.47;;;7.90;65.50;;;;;;4977984;28;20034;-83
2022/11/28 09:59:33;;;;;;;11.15;5.47;;;8.00;65.30;;;;;;4978037;28;20360;-83
2022/11/28 10:02:17;;;;;;;10.10;4.90;;;8.10;64.80;;;;;;4977456;28;20030;-82
2022/11/28 10:05:07;;;;;;;7.20;4.55;;;8.20;63.70;;;;;;4978057;28;20019;-82
2022/11/28 10:07:51;;;;;;;10.50;5.35;;;8.30;64.00;;;;;;4978071;28;20026;-84
2022/11/28 10:10:28;;;;;;;11.85;5.43;;;8.40;64.00;;;;;;4983794;28;20053;-82
2022/11/28 10:13:07;;;;;;;9.40;5.18;;;8.50;63.00;;;;;;5005885;28;20097;-81
2022/11/28 10:15:43;;;;;;;12.98;6.53;;;8.60;62.50;;;;;;4988431;28;20094;-79
2022/11/28 10:18:08;;;;;;;;;;;8.60;62.10;;;;;;4996987;28;20398;-85
2022/11/28 10:20:40;;;;;;;;;;;8.70;61.00;;;;;;4978993;28;19906;-82
2022/11/28 10:23:36;;;;;;;9.80;4.43;;;8.70;60.50;;;;;;4995178;28;20401;-84
2022/11/28 10:26:11;;;;;;;12.98;4.45;;;8.80;60.80;;;;;;4994418;28;20025;-80
2022/11/28 10:28:42;;;;;;;14.57;4.97;;;9.00;71.30;;;;;;4994293;28;20241;-75
2022/11/28 10:31:27;;;;;;;10.73;4.82;;;9.30;73.80;;;;;;4994498;28;20073;-76
2022/11/28 10:34:27;;;;;;;7.63;4.53;;;9.50;68.60;;;;;;4994452;28;20105;-79
2022/11/28 10:37:14;;;;;;;7.00;4.13;;;9.80;65.40;;;;;;4994842;28;20053;-81
2022/11/28 10:39:43;;;;;;;7.65;4.28;;;10.00;62.90;;;;;;4995702;28;20031;-85
2022/11/28 10:42:41;;;;;;;10.93;4.70;;;10.00;61.60;;;;;;4977495;28;20023;-86
2022/11/28 10:45:26;;;;;;;13.45;4.57;;;10.00;61.10;;;;;;4924672;28;20389;-82
2022/11/28 10:48:06;;;;;;;13.55;4.63;;;9.90;60.90;;;;;;4977319;28;20045;-74
2022/11/28 10:50:37;;;;;;;11.07;5.30;;;9.90;62.10;;;;;;4993980;28;20034;-74
2022/11/28 10:53:21;;;;;;;20.05;5.80;;;10.30;63.80;;;;;;4976330;28;20030;-75
2022/11/28 10:56:05;;;;;;;13.48;5.18;;;10.50;60.50;;;;;;4993911;28;20022;-79
2022/11/28 10:58:54;;;;;;;20.85;5.82;;;10.70;61.40;;;;;;4994602;28;20085;-77
2022/11/28 11:01:20;;;;;;;25.58;7.90;;;11.00;61.30;;;;;;4993568;28;20030;-76
2022/11/28 11:03:47;;;;;;;13.95;5.65;;;11.10;59.20;;;;;;4993655;28;20537;-76
2022/11/28 11:06:13;;;;;;;18.23;6.32;;;11.20;58.00;;;;;;4993541;28;20061;-80
2022/11/28 11:08:39;;;;;;;17.63;5.82;;;11.50;58.10;;;;;;4975726;28;20074;-78
2022/11/28 11:11:21;;;;;;;16.90;6.78;;;11.40;57.00;;;;;;4993617;28;20030;-78
2022/11/28 11:14:05;;;;;;;15.18;5.80;;;11.50;57.80;;;;;;4993068;28;20027;-80
2022/11/28 11:16:47;;;;;;;11.30;5.40;;;11.60;57.40;;;;;;4976166;28;20031;-78
2022/11/28 11:19:23;;;;;;;16.15;5.10;;;11.70;57.30;;;;;;4993456;28;20442;-80
2022/11/28 11:22:03;;;;;;;15.10;5.22;;;11.70;56.30;;;;;;4993489;28;20106;-81
2022/11/28 11:24:29;;;;;;;17.75;5.18;;;11.70;56.50;;;;;;4993348;28;20109;-78
2022/11/28 11:27:22;;;;;;;23.40;5.82;;;11.60;56.20;;;;;;4975908;28;20034;-77
2022/11/28 11:29:49;;;;;;;16.65;4.85;;;11.50;57.60;;;;;;4992690;28;20124;-77
2022/11/28 11:32:29;;;;;;;12.00;5.72;;;11.50;58.10;;;;;;4993111;28;20018;-77
2022/11/28 11:34:57;;;;;;;18.48;7.70;;;11.40;58.10;;;;;;4993051;28;20025;-83
2022/11/28 11:37:34;;;;;;;13.50;6.82;;;11.20;58.20;;;;;;4972798;28;20185;-82
2022/11/28 11:40:02;;;;;;;13.20;7.50;;;11.10;58.80;;;;;;4976010;28;20036;-81
2022/11/28 11:42:30;;;;;;;10.63;6.32;;;11.00;59.10;;;;;;4966728;28;20030;-82
2022/11/28 11:45:17;;;;;;;10.45;5.00;;;10.90;59.30;;;;;;4981974;28;20113;-83
2022/11/28 11:47:43;;;;;;;11.95;5.20;;;10.90;59.20;;;;;;4964122;28;20058;-82
2022/11/28 11:50:17;;;;;;;11.25;4.10;;;10.80;59.60;;;;;;4966672;28;20043;-80
2022/11/28 11:52:42;;;;;;;6.95;3.42;;;10.80;59.70;;;;;;4981527;28;20077;-87
2022/11/28 11:55:13;;;;;;;7.88;2.03;;;10.80;61.00;;;;;;4982530;28;20034;-81
2022/11/28 11:57:46;;;;;;;4.38;1.70;;;10.80;58.40;;;;;;4976811;28;20027;-81
2022/11/28 12:00:26;;;;;;;4.55;1.40;;;10.80;58.20;;;;;;4956563;28;20368;-81
2022/11/28 12:02:53;;;;;;;11.90;2.00;;;10.80;58.10;;;;;;4956969;28;20436;-84
2022/11/28 12:05:47;;;;;;;3.80;1.60;;;10.80;57.90;;;;;;4956389;28;20027;-81
2022/11/28 12:08:31;;;;;;;5.65;1.50;;;10.70;58.50;;;;;;4956828;28;20169;-81
2022/11/28 12:11:13;;;;;;;2.25;1.08;;;10.70;58.60;;;;;;4956696;28;20046;-80
2022/11/28 12:13:39;;;;;;;3.60;1.67;;;10.80;58.20;;;;;;4979292;28;20109;-82
2022/11/28 12:16:10;;;;;;;3.92;1.85;;;10.80;58.30;;;;;;4966322;28;20069;-83
2022/11/28 12:19:05;;;;;;;5.78;2.05;;;10.70;59.00;;;;;;4962178;28;20141;-85
2022/11/28 12:21:40;;;;;;;3.25;1.38;;;10.70;59.10;;;;;;4977235;28;20035;-82
2022/11/28 12:24:16;;;;;;;4.60;1.52;;;10.80;59.00;;;;;;4960440;28;20517;-83
2022/11/28 12:26:41;;;;;;;;;;;10.80;59.00;;;;;;4978265;28;20031;-83
2022/11/28 12:29:11;;;;;;;;;;;10.80;59.00;;;;;;4961552;28;20270;-83
2022/11/28 12:31:50;;;;;;;4.60;1.73;;;10.80;57.90;;;;;;4978650;28;19906;-83
2022/11/28 12:34:31;;;;;;;6.88;2.10;;;10.90;58.80;;;;;;4960296;28;20019;-83
2022/11/28 12:37:28;;;;;;;6.82;3.03;;;11.10;59.50;;;;;;4960822;28;20109;-82
2022/11/28 12:40:23;;;;;;;8.88;2.95;;;11.20;60.30;;;;;;4960306;28;20490;-82
2022/11/28 12:43:02;;;;;;;9.05;3.13;;;11.10;60.70;;;;;;4977894;28;20019;-82
2022/11/28 12:45:45;;;;;;;7.28;2.85;;;11.10;60.70;;;;;;4977323;28;20483;-83
2022/11/28 12:48:22;;;;;;;5.75;2.95;;;11.10;60.70;;;;;;4960064;28;20463;-84
2022/11/28 12:50:58;;;;;;;8.60;3.95;;;11.10;61.00;;;;;;4977663;28;20093;-83
2022/11/28 12:53:35;;;;;;;6.72;3.38;;;11.10;61.60;;;;;;4977900;28;20025;-84
2022/11/28 12:56:30;;;;;;;6.93;3.00;;;11.10;61.10;;;;;;4977278;28;20038;-80
2022/11/28 12:59:21;;;;;;;6.70;3.60;;;11.10;61.00;;;;;;4959660;28;20106;-82
2022/11/28 13:02:17;;;;;;;5.32;2.50;;;11.10;60.60;;;;;;4977170;28;20050;-82
2022/11/28 13:04:57;;;;;;;;;;;11.10;59.90;;;;;;4977376;28;20034;-80
2022/11/28 13:07:41;;;;;;;;;;;11.10;59.70;;;;;;4984332;28;19917;-78
2022/11/28 13:10:06;;;;;;;;;;;11.00;60.10;;;;;;4984220;28;19921;-80
2022/11/28 13:12:51;;;;;;;;;;;10.80;61.10;;;;;;4985868;28;19905;-81
2022/11/28 13:15:35;;;;;;;;;;;10.70;61.80;;;;;;4968873;28;19909;-80
2022/11/28 13:18:12;;;;;;;;;;;10.70;61.70;;;;;;4978023;28;20001;-81